createdAt,value
2022-07-31T00:04:52.331Z,98712.91
2022-07-31T00:09:55.543Z,98717.78
2022-07-31T00:14:59.658Z,98705.81
2022-07-31T00:20:02.874Z,98707.97
2022-07-31T00:25:06.422Z,98704.97
2022-07-31T00:30:12.979Z,98700.66
2022-07-31T00:35:16.009Z,98694.78
2022-07-31T00:40:18.808Z,98697.50
2022-07-31T00:45:24.243Z,98697.00
2022-07-31T00:50:32.257Z,98686.19
2022-07-31T00:55:51.795Z,98687.69
2022-07-31T01:00:56.390Z,98676.28
2022-07-31T01:05:59.364Z,98674.25
2022-07-31T01:11:07.590Z,98676.09
2022-07-31T01:16:19.272Z,98679.94
2022-07-31T01:21:28.477Z,98680.16
2022-07-31T01:26:39.954Z,98672.25
2022-07-31T01:31:47.419Z,98668.44
2022-07-31T01:36:59.147Z,98659.03
2022-07-31T01:42:06.783Z,98652.00
2022-07-31T01:47:14.880Z,98653.53
2022-07-31T01:52:18.932Z,98653.53
2022-07-31T01:57:24.614Z,98658.47
2022-07-31T02:02:31.539Z,98659.69
2022-07-31T02:07:36.229Z,98654.50
2022-07-31T02:12:39.585Z,98665.69
2022-07-31T02:17:46.439Z,98657.94
2022-07-31T02:22:59.246Z,98660.50
2022-07-31T02:28:06.562Z,98652.59
2022-07-31T02:33:14.743Z,98640.31
2022-07-31T02:38:22.993Z,98635.59
2022-07-31T02:43:29.544Z,98637.94
2022-07-31T02:48:37.165Z,98639.97
2022-07-31T02:53:43.660Z,98635.91
2022-07-31T02:58:46.981Z,98636.09
2022-07-31T03:04:01.637Z,98637.59
2022-07-31T03:09:05.341Z,98636.41
2022-07-31T03:14:12.342Z,98636.59
2022-07-31T03:19:17.190Z,98640.28
2022-07-31T03:24:20.704Z,98635.06
2022-07-31T03:29:39.251Z,98637.25
2022-07-31T03:34:48.783Z,98631.19
2022-07-31T03:39:52.838Z,98636.41
2022-07-31T03:44:56.670Z,98633.03
2022-07-31T03:50:02.960Z,98628.78
2022-07-31T03:55:07.607Z,98632.16
2022-07-31T04:00:16.876Z,98623.06
2022-07-31T04:05:22.119Z,98628.13
2022-07-31T04:10:25.047Z,98633.38
2022-07-31T04:15:28.016Z,98637.09
2022-07-31T04:20:32.247Z,98640.97
2022-07-31T04:25:35.058Z,98634.25
2022-07-31T04:30:51.758Z,98641.47
2022-07-31T04:35:55.972Z,98651.91
2022-07-31T04:40:58.736Z,98647.03
2022-07-31T04:46:02.137Z,98643.88
2022-07-31T04:51:24.818Z,98639.00
2022-07-31T04:56:42.873Z,98644.84
2022-07-31T05:01:46.253Z,98631.84
2022-07-31T05:06:53.464Z,98633.34
2022-07-31T05:11:56.228Z,98638.03
2022-07-31T05:16:59.655Z,98630.94
2022-07-31T05:22:11.574Z,98635.63
2022-07-31T05:27:33.252Z,98626.69
2022-07-31T05:32:42.304Z,98637.59
2022-07-31T05:37:46.752Z,98628.78
2022-07-31T05:42:50.259Z,98629.94
2022-07-31T05:48:19.273Z,98630.53
2022-07-31T05:53:24.167Z,98634.88
2022-07-31T05:58:49.622Z,98633.53
2022-07-31T06:03:52.801Z,98633.09
2022-07-31T06:09:05.291Z,98632.38
2022-07-31T06:14:12.463Z,98635.38
2022-07-31T06:19:43.960Z,98635.63
2022-07-31T06:24:49.593Z,98636.88
2022-07-31T06:29:53.924Z,98643.03
2022-07-31T06:34:56.761Z,98634.72
2022-07-31T06:40:00.967Z,98624.84
2022-07-31T06:45:41.597Z,98621.72
2022-07-31T06:51:21.060Z,98624.38
2022-07-31T06:56:25.467Z,98625.06
2022-07-31T07:01:29.157Z,98626.09
2022-07-31T07:06:32.446Z,98626.34
2022-07-31T07:11:36.944Z,98625.38
2022-07-31T07:16:39.836Z,98615.75
2022-07-31T07:21:42.742Z,98610.03
2022-07-31T07:26:47.115Z,98608.78
2022-07-31T07:31:49.968Z,98607.69
2022-07-31T07:36:53.035Z,98607.06
2022-07-31T07:42:01.279Z,98598.66
2022-07-31T07:47:04.442Z,98597.09
2022-07-31T07:52:08.152Z,98594.19
2022-07-31T07:57:15.971Z,98590.84
2022-07-31T08:02:37.384Z,98593.13
2022-07-31T08:07:43.088Z,98588.09
2022-07-31T08:13:05.936Z,98586.19
2022-07-31T08:18:28.705Z,98585.97
2022-07-31T08:23:31.947Z,98588.63
2022-07-31T08:28:36.596Z,98591.66
2022-07-31T08:33:39.465Z,98589.44
2022-07-31T08:38:42.413Z,98573.94
2022-07-31T08:44:05.437Z,98571.41
2022-07-31T08:49:14.067Z,98565.97
2022-07-31T08:54:21.036Z,98566.88
2022-07-31T08:59:25.393Z,98560.63
2022-07-31T09:04:29.851Z,98568.19
2022-07-31T09:09:41.270Z,98554.63
2022-07-31T09:14:55.498Z,98552.91
2022-07-31T09:19:58.519Z,98551.25
2022-07-31T09:25:13.025Z,98556.53
2022-07-31T09:30:18.003Z,98549.84
2022-07-31T09:35:47.878Z,98545.44
2022-07-31T09:40:56.892Z,98546.53
2022-07-31T09:46:28.411Z,98542.00
2022-07-31T09:51:39.368Z,98536.41
2022-07-31T09:56:44.773Z,98537.56
2022-07-31T10:01:50.172Z,98541.25
2022-07-31T10:06:53.368Z,98538.63
2022-07-31T10:11:59.062Z,98542.66
2022-07-31T10:17:06.622Z,98555.28
2022-07-31T10:22:15.264Z,98541.31
2022-07-31T10:27:19.415Z,98534.16
2022-07-31T10:32:30.052Z,98517.88
2022-07-31T10:38:04.814Z,98518.00
2022-07-31T10:43:36.621Z,98520.38
2022-07-31T10:48:59.561Z,98515.03
2022-07-31T10:54:22.456Z,98515.84
2022-07-31T10:59:44.876Z,98515.66
2022-07-31T11:04:55.181Z,98518.25
2022-07-31T11:10:19.546Z,98518.66
2022-07-31T11:15:40.895Z,98510.19
2022-07-31T11:21:28.792Z,98500.91
2022-07-31T11:26:33.158Z,98490.22
2022-07-31T11:31:44.013Z,98477.19
2022-07-31T11:36:51.520Z,98477.38
2022-07-31T11:42:09.480Z,98471.50
2022-07-31T11:48:09.484Z,98464.34
2022-07-31T11:52:38.022Z,98463.22
2022-07-31T11:57:50.923Z,98452.38
2022-07-31T12:02:55.745Z,98456.34
2022-07-31T12:08:00.160Z,98453.13
2022-07-31T12:13:04.586Z,98454.78
2022-07-31T12:18:07.964Z,98447.88
2022-07-31T12:23:41.145Z,98446.44
2022-07-31T12:28:35.824Z,98447.44
2022-07-31T12:33:43.140Z,98448.66
2022-07-31T12:38:49.046Z,98439.28
2022-07-31T12:43:54.222Z,98434.25
2022-07-31T12:48:57.172Z,98436.69
2022-07-31T12:54:03.358Z,98433.41
2022-07-31T12:59:08.424Z,98434.09
2022-07-31T13:04:18.651Z,98419.78
2022-07-31T13:10:19.910Z,98428.69
2022-07-31T13:15:12.685Z,98421.03
2022-07-31T13:20:16.719Z,98418.22
2022-07-31T13:25:21.621Z,98401.31
2022-07-31T13:30:24.415Z,98406.47
2022-07-31T13:35:29.082Z,98404.94
2022-07-31T13:40:51.271Z,98400.59
2022-07-31T13:45:54.043Z,98397.66
2022-07-31T13:50:56.901Z,98391.69
2022-07-31T13:56:01.339Z,98393.41
2022-07-31T14:01:05.095Z,98382.47
2022-07-31T14:06:08.172Z,98383.94
2022-07-31T14:11:13.847Z,98380.22
2022-07-31T14:16:18.276Z,98375.38
2022-07-31T14:21:21.057Z,98366.59
2022-07-31T14:26:25.214Z,98369.19
2022-07-31T14:31:27.956Z,98367.53
2022-07-31T14:36:30.711Z,98358.59
2022-07-31T14:41:34.838Z,98358.13
2022-07-31T14:46:37.619Z,98356.38
2022-07-31T14:51:40.565Z,98352.88
2022-07-31T14:57:00.703Z,98367.81
2022-07-31T15:02:04.456Z,98363.00
2022-07-31T15:07:33.551Z,98360.03
2022-07-31T15:12:32.372Z,98375.09
2022-07-31T15:17:35.283Z,98369.63
2022-07-31T15:22:38.122Z,98357.94
2022-07-31T15:27:42.518Z,98374.59
2022-07-31T15:32:45.651Z,98378.13
2022-07-31T15:37:49.441Z,98354.31
2022-07-31T15:42:53.559Z,98354.47
2022-07-31T15:47:56.345Z,98355.78
2022-07-31T15:52:59.074Z,98344.22
2022-07-31T15:58:03.171Z,98343.69
2022-07-31T16:03:06.139Z,98351.97
2022-07-31T16:08:29.335Z,98349.56
2022-07-31T16:13:36.299Z,98342.00
2022-07-31T16:18:39.151Z,98330.69
2022-07-31T16:23:42.333Z,98318.34
2022-07-31T16:28:49.031Z,98320.19
2022-07-31T16:33:55.066Z,98308.19
2022-07-31T16:39:18.918Z,98310.19
2022-07-31T16:44:22.077Z,98301.47
2022-07-31T16:49:35.756Z,98304.75
2022-07-31T16:54:40.159Z,98293.88
2022-07-31T16:59:57.466Z,98297.44
2022-07-31T17:05:00.763Z,98306.22
2022-07-31T17:10:03.591Z,98309.03
2022-07-31T17:15:08.958Z,98303.91
2022-07-31T17:20:12.391Z,98296.09
2022-07-31T17:25:18.215Z,98301.44
2022-07-31T17:30:22.334Z,98314.00
2022-07-31T17:35:25.282Z,98319.50
2022-07-31T17:40:43.105Z,98319.56
2022-07-31T17:47:07.689Z,98317.91
2022-07-31T17:51:11.050Z,98318.38
2022-07-31T17:56:14.011Z,98315.41
2022-07-31T18:01:18.295Z,98323.56
2022-07-31T18:06:21.339Z,98326.81
2022-07-31T18:11:24.212Z,98326.44
2022-07-31T18:16:28.370Z,98330.47
2022-07-31T18:21:31.130Z,98334.25
2022-07-31T18:26:35.231Z,98332.16
2022-07-31T18:31:39.571Z,98328.75
2022-07-31T18:36:42.960Z,98337.53
2022-07-31T18:41:49.000Z,98341.25
2022-07-31T18:46:53.393Z,98342.88
2022-07-31T18:51:56.303Z,98332.13
2022-07-31T18:56:59.306Z,98336.19
2022-07-31T19:02:04.059Z,98337.03
2022-07-31T19:07:07.099Z,98331.09
2022-07-31T19:12:10.460Z,98337.75
2022-07-31T19:17:18.495Z,98338.75
2022-07-31T19:22:24.567Z,98338.03
2022-07-31T19:27:46.936Z,98344.44
2022-07-31T19:32:51.491Z,98349.53
2022-07-31T19:37:58.639Z,98350.19
2022-07-31T19:43:02.085Z,98352.78
2022-07-31T19:48:06.923Z,98357.41
2022-07-31T19:53:09.696Z,98360.22
2022-07-31T19:58:12.454Z,98362.59
2022-07-31T20:03:16.736Z,98363.91
2022-07-31T20:08:20.116Z,98368.56
2022-07-31T20:13:22.856Z,98373.41
2022-07-31T20:18:30.543Z,98364.91
2022-07-31T20:23:34.138Z,98364.50
2022-07-31T20:28:37.598Z,98369.53
2022-07-31T20:33:44.252Z,98377.13
2022-07-31T20:38:49.306Z,98387.81
2022-07-31T20:43:52.070Z,98375.28
2022-07-31T20:48:57.172Z,98378.66
2022-07-31T20:54:00.090Z,98391.03
2022-07-31T20:59:02.896Z,98399.03
2022-07-31T21:04:07.677Z,98388.56
2022-07-31T21:09:10.452Z,98389.38
2022-07-31T21:14:13.322Z,98399.03
2022-07-31T21:19:17.471Z,98398.41
2022-07-31T21:24:22.342Z,98397.81
2022-07-31T21:29:29.191Z,98393.59
2022-07-31T21:34:34.156Z,98393.41
2022-07-31T21:39:37.364Z,98392.59
2022-07-31T21:44:40.591Z,98404.50
2022-07-31T21:49:54.067Z,98404.72
2022-07-31T21:55:03.789Z,98413.94
2022-07-31T22:00:13.732Z,98416.03
2022-07-31T22:05:36.072Z,98416.44
2022-07-31T22:10:38.977Z,98420.38
2022-07-31T22:15:55.645Z,98430.59
2022-07-31T22:21:06.600Z,98435.19
2022-07-31T22:26:09.768Z,98432.88
2022-07-31T22:31:12.969Z,98432.66
2022-07-31T22:36:18.375Z,98440.34
2022-07-31T22:41:21.913Z,98446.63
2022-07-31T22:46:24.934Z,98445.16
2022-07-31T22:51:29.319Z,98441.38
2022-07-31T22:56:32.079Z,98446.56
2022-07-31T23:01:35.084Z,98451.53
2022-07-31T23:06:39.184Z,98460.47
2022-07-31T23:11:42.146Z,98469.81
2022-07-31T23:16:44.984Z,98465.59
2022-07-31T23:21:49.209Z,98471.38
2022-07-31T23:26:52.007Z,98465.47
2022-07-31T23:31:54.877Z,98470.00
2022-07-31T23:36:59.020Z,98473.50
2022-07-31T23:42:15.698Z,98465.94
2022-07-31T23:47:18.532Z,98470.91
2022-07-31T23:52:23.876Z,98469.19
2022-07-31T23:57:26.637Z,98466.81
